Time;durP1;ratioP1;P1;durP2;ratioP2;P2;SDS_P1;SDS_P2;PMS_P1;PMS_P2;Temp;Humidity;BMP_temperature;BMP_pressure;BME280_temperature;BME280_humidity;BME280_pressure;Samples;Min_cycle;Max_cycle;Signal;HPM_P1;HPM_P2
2021/08/09 00:01:15;;;;;;;10.98;9.85;;;14.70;99.90;;;;;;4973645;28;20073;-72
2021/08/09 00:03:42;;;;;;;13.45;9.82;;;14.80;99.90;;;;;;4973677;28;20071;-73
2021/08/09 00:06:10;;;;;;;14.32;9.07;;;14.70;99.90;;;;;;4973609;28;20142;-73
2021/08/09 00:08:37;;;;;;;11.85;9.02;;;14.70;99.90;;;;;;4973516;28;20029;-73
2021/08/09 00:11:05;;;;;;;10.05;8.77;;;15.10;99.90;;;;;;4972160;28;20558;-72
2021/08/09 00:13:32;;;;;;;13.90;9.85;;;15.20;99.90;;;;;;4973436;28;20050;-72
2021/08/09 00:16:00;;;;;;;14.52;9.20;;;15.10;99.90;;;;;;4973517;28;20030;-71
2021/08/09 00:18:27;;;;;;;10.63;8.43;;;15.10;99.90;;;;;;4973644;28;20038;-73
2021/08/09 00:20:57;;;;;;;12.63;8.40;;;15.10;99.90;;;;;;4973558;28;20027;-73
2021/08/09 00:23:24;;;;;;;13.00;7.80;;;15.10;99.90;;;;;;4973678;28;20082;-72
2021/08/09 00:25:52;;;;;;;10.55;7.68;;;15.00;99.90;;;;;;4973446;28;20113;-73
2021/08/09 00:28:19;;;;;;;11.70;8.27;;;15.10;99.90;;;;;;4972044;28;20431;-72
2021/08/09 00:30:47;;;;;;;10.27;8.13;;;14.90;99.90;;;;;;4973234;28;20023;-73
2021/08/09 00:33:14;;;;;;;10.30;7.60;;;15.40;99.90;;;;;;4973366;28;20385;-72
2021/08/09 00:35:41;;;;;;;9.68;7.70;;;15.60;99.90;;;;;;4972038;28;20433;-71
2021/08/09 00:38:09;;;;;;;10.60;7.63;;;15.60;99.90;;;;;;4973176;28;20023;-72
2021/08/09 00:40:36;;;;;;;10.52;8.25;;;15.70;99.90;;;;;;4973259;28;20113;-72
2021/08/09 00:43:04;;;;;;;10.70;7.82;;;16.00;99.90;;;;;;4971783;28;20026;-72
2021/08/09 00:45:31;;;;;;;7.82;7.10;;;16.50;99.90;;;;;;4973269;28;20106;-73
2021/08/09 00:47:59;;;;;;;9.10;7.88;;;16.70;99.90;;;;;;4971968;28;20053;-72
2021/08/09 00:50:26;;;;;;;8.55;6.78;;;16.90;99.90;;;;;;4973335;28;20027;-73
2021/08/09 00:52:54;;;;;;;13.32;6.20;;;17.10;99.90;;;;;;4973759;28;20476;-73
2021/08/09 00:55:21;;;;;;;10.70;5.32;;;17.20;99.90;;;;;;4975419;28;20459;-72
2021/08/09 00:57:48;;;;;;;7.97;4.22;;;17.00;99.90;;;;;;4976571;28;20396;-72
2021/08/09 01:00:16;;;;;;;7.10;4.10;;;16.80;99.90;;;;;;4976562;28;20022;-73
2021/08/09 01:02:44;;;;;;;8.15;4.40;;;16.70;99.90;;;;;;4976395;28;20460;-71
2021/08/09 01:05:13;;;;;;;8.93;3.90;;;16.70;99.90;;;;;;4974948;28;20058;-72
2021/08/09 01:08:13;;;;;;;9.15;4.05;;;16.70;99.90;;;;;;4976413;28;20029;-72
2021/08/09 01:11:06;;;;;;;7.10;3.53;;;16.70;99.90;;;;;;4976342;28;20026;-72
2021/08/09 01:13:50;;;;;;;4.85;3.15;;;16.80;99.90;;;;;;4976183;28;20448;-73
2021/08/09 01:16:21;;;;;;;5.93;3.50;;;16.80;99.90;;;;;;4976451;28;20063;-73
2021/08/09 01:18:49;;;;;;;6.00;3.45;;;16.90;99.90;;;;;;4976328;28;20050;-73
2021/08/09 01:21:19;;;;;;;7.90;3.30;;;17.10;99.90;;;;;;4974820;28;20027;-72
2021/08/09 01:24:08;;;;;;;5.53;3.78;;;17.20;99.90;;;;;;4976226;28;20023;-72
2021/08/09 01:27:19;;;;;;;8.65;3.35;;;17.20;99.90;;;;;;4976044;28;20029;-72
2021/08/09 01:29:47;;;;;;;7.32;3.25;;;17.30;99.90;;;;;;4940125;28;20495;-72
2021/08/09 01:32:19;;;;;;;6.57;3.28;;;17.60;99.80;;;;;;4974648;28;20077;-72
2021/08/09 01:34:49;;;;;;;8.38;3.40;;;17.70;99.60;;;;;;4976450;28;20113;-76
2021/08/09 01:37:20;;;;;;;7.57;3.05;;;17.80;99.50;;;;;;4976175;28;20026;-72
2021/08/09 01:39:48;;;;;;;6.05;2.92;;;17.80;98.80;;;;;;4974645;28;20031;-73
2021/08/09 01:42:17;;;;;;;7.05;2.47;;;17.80;99.30;;;;;;4975943;28;20360;-73
2021/08/09 01:44:44;;;;;;;6.30;3.63;;;17.90;98.70;;;;;;4976098;28;20110;-73
2021/08/09 01:47:13;;;;;;;9.02;3.50;;;17.90;98.70;;;;;;4975941;28;20420;-73
2021/08/09 01:49:41;;;;;;;6.35;3.28;;;17.80;98.80;;;;;;4975771;28;20053;-74
2021/08/09 01:52:09;;;;;;;8.00;3.17;;;17.60;98.40;;;;;;4974693;28;20392;-73
2021/08/09 01:54:37;;;;;;;6.13;3.20;;;17.30;98.80;;;;;;4975678;28;20019;-73
2021/08/09 01:57:05;;;;;;;9.10;3.42;;;17.30;98.60;;;;;;4974361;28;20058;-73
2021/08/09 01:59:33;;;;;;;10.63;3.05;;;17.50;98.70;;;;;;4974188;28;20555;-73
2021/08/09 02:02:01;;;;;;;6.43;2.80;;;17.80;99.50;;;;;;4975548;28;20062;-72
2021/08/09 02:04:28;;;;;;;7.75;3.65;;;18.00;98.60;;;;;;4973734;28;20023;-73
2021/08/09 02:06:55;;;;;;;9.07;3.50;;;17.70;98.30;;;;;;4975530;28;20118;-72
2021/08/09 02:09:23;;;;;;;6.80;3.15;;;17.40;99.40;;;;;;4975391;28;20030;-73
2021/08/09 02:12:05;;;;;;;6.45;3.10;;;17.30;99.50;;;;;;4975122;28;20130;-73
2021/08/09 02:14:36;;;;;;;6.15;3.40;;;17.20;99.10;;;;;;4975326;28;20391;-72
2021/08/09 02:17:13;;;;;;;8.07;3.75;;;17.10;99.40;;;;;;4975306;28;20030;-74
2021/08/09 02:19:58;;;;;;;5.70;3.20;;;17.00;99.90;;;;;;4975248;28;20029;-73
2021/08/09 02:22:39;;;;;;;6.95;3.10;;;16.90;99.50;;;;;;4975372;28;20480;-73
2021/08/09 02:25:14;;;;;;;5.57;3.05;;;16.80;99.50;;;;;;4975055;28;20425;-73
2021/08/09 02:27:47;;;;;;;5.20;3.20;;;16.90;99.60;;;;;;4975167;28;20018;-73
2021/08/09 02:30:18;;;;;;;12.15;4.03;;;16.90;99.70;;;;;;4973828;28;20023;-72
2021/08/09 02:32:47;;;;;;;7.38;3.25;;;17.00;99.50;;;;;;4973723;28;20023;-74
2021/08/09 02:35:16;;;;;;;7.45;3.15;;;17.10;99.60;;;;;;4975094;28;20031;-74
2021/08/09 02:37:45;;;;;;;5.60;3.25;;;17.20;99.90;;;;;;4975187;28;20102;-73
2021/08/09 02:40:14;;;;;;;9.02;3.42;;;17.30;99.30;;;;;;4974911;28;20035;-73
2021/08/09 02:42:43;;;;;;;8.70;3.60;;;17.30;99.60;;;;;;4973622;28;20162;-71
2021/08/09 02:45:11;;;;;;;7.22;3.47;;;17.30;99.40;;;;;;4974636;28;20497;-73
2021/08/09 02:47:38;;;;;;;9.13;3.38;;;17.30;99.80;;;;;;4974677;28;20023;-72
2021/08/09 02:50:09;;;;;;;11.57;3.78;;;17.30;99.90;;;;;;4973291;28;20026;-72
2021/08/09 02:52:39;;;;;;;11.85;3.67;;;17.40;99.90;;;;;;4974667;28;20086;-73
2021/08/09 02:55:08;;;;;;;6.43;3.10;;;17.40;99.90;;;;;;4973538;28;20058;-72
2021/08/09 02:57:37;;;;;;;6.63;3.15;;;17.50;99.90;;;;;;4973222;28;20265;-73
2021/08/09 03:00:06;;;;;;;9.10;3.83;;;17.50;99.70;;;;;;4973112;28;20373;-73
2021/08/09 03:02:38;;;;;;;6.00;3.40;;;17.70;99.80;;;;;;4973896;28;20424;-73
2021/08/09 03:05:10;;;;;;;6.80;3.63;;;17.80;99.70;;;;;;4974395;28;20106;-73
2021/08/09 03:07:40;;;;;;;5.22;3.17;;;17.80;99.20;;;;;;4974433;28;20555;-74
2021/08/09 03:10:09;;;;;;;7.18;3.50;;;17.70;99.90;;;;;;4974281;28;20411;-73
2021/08/09 03:12:37;;;;;;;10.90;3.80;;;17.60;99.80;;;;;;4973050;28;20082;-73
2021/08/09 03:15:06;;;;;;;10.85;4.22;;;17.50;99.70;;;;;;4974416;28;20030;-72
2021/08/09 03:17:33;;;;;;;8.00;3.70;;;17.40;99.90;;;;;;4972666;28;20027;-74
2021/08/09 03:20:00;;;;;;;6.88;3.67;;;17.40;99.90;;;;;;4974492;28;20110;-72
2021/08/09 03:22:28;;;;;;;9.05;3.92;;;17.80;99.90;;;;;;4974170;28;20109;-72
2021/08/09 03:24:55;;;;;;;10.75;4.10;;;18.10;99.90;;;;;;4974108;28;20027;-72
2021/08/09 03:27:22;;;;;;;10.35;4.00;;;18.20;99.30;;;;;;4974215;28;20027;-72
2021/08/09 03:29:49;;;;;;;8.75;3.63;;;18.20;99.80;;;;;;4972854;28;20396;-72
2021/08/09 03:32:17;;;;;;;9.85;4.03;;;18.40;99.90;;;;;;4974788;28;20027;-71
2021/08/09 03:34:44;;;;;;;12.93;4.00;;;18.50;99.50;;;;;;4972881;28;20039;-73
2021/08/09 03:37:11;;;;;;;11.23;3.60;;;18.60;99.30;;;;;;4973983;28;20019;-72
2021/08/09 03:39:39;;;;;;;11.65;4.25;;;18.70;98.80;;;;;;4974159;28;20027;-72
2021/08/09 03:42:06;;;;;;;7.32;3.65;;;18.60;98.60;;;;;;4973922;28;20025;-71
2021/08/09 03:44:33;;;;;;;9.88;3.80;;;18.70;99.80;;;;;;4973988;28;20015;-72
2021/08/09 03:47:01;;;;;;;9.13;4.13;;;18.60;98.90;;;;;;4972510;28;20045;-72
2021/08/09 03:49:28;;;;;;;8.30;3.58;;;18.70;99.30;;;;;;4972853;28;20487;-73
2021/08/09 03:51:55;;;;;;;9.02;3.97;;;18.50;98.40;;;;;;4972533;28;20023;-73
2021/08/09 03:54:23;;;;;;;9.98;3.95;;;18.30;99.30;;;;;;4973891;28;20472;-72
2021/08/09 03:56:50;;;;;;;10.95;4.25;;;18.00;99.40;;;;;;4972505;28;20034;-72
2021/08/09 03:59:17;;;;;;;9.15;3.67;;;17.60;99.70;;;;;;4973857;28;20030;-72
2021/08/09 04:01:47;;;;;;;8.85;3.45;;;17.40;99.90;;;;;;4973858;28;20054;-72
2021/08/09 04:04:16;;;;;;;7.65;3.53;;;17.50;99.90;;;;;;4973805;28;20054;-74
2021/08/09 04:06:43;;;;;;;8.88;3.88;;;17.70;99.60;;;;;;4973577;28;20541;-73
2021/08/09 04:09:11;;;;;;;9.75;4.25;;;17.80;99.80;;;;;;4973622;28;20059;-73
2021/08/09 04:11:39;;;;;;;9.82;4.00;;;17.90;99.80;;;;;;4972073;28;20073;-73
2021/08/09 04:14:06;;;;;;;11.70;3.83;;;17.90;99.80;;;;;;4973649;28;20388;-73
2021/08/09 04:16:34;;;;;;;9.25;4.20;;;17.80;99.90;;;;;;4972301;28;20030;-73
2021/08/09 04:19:02;;;;;;;12.45;4.00;;;17.80;99.90;;;;;;4973577;28;20027;-73
2021/08/09 04:21:29;;;;;;;6.80;4.05;;;17.80;99.90;;;;;;4972207;28;20031;-74
2021/08/09 04:23:57;;;;;;;10.93;3.92;;;17.80;99.90;;;;;;4972313;28;20031;-73
2021/08/09 04:26:24;;;;;;;11.02;3.70;;;17.80;99.90;;;;;;4973513;28;20488;-74
2021/08/09 04:28:51;;;;;;;9.18;3.97;;;18.00;99.90;;;;;;4977479;28;20027;-75
2021/08/09 04:31:20;;;;;;;9.40;4.07;;;18.10;99.60;;;;;;4977303;28;20027;-74
2021/08/09 04:33:50;;;;;;;9.23;3.92;;;18.10;99.50;;;;;;4975820;28;20074;-74
2021/08/09 04:36:18;;;;;;;8.98;3.70;;;18.10;99.30;;;;;;4977089;28;20115;-73
2021/08/09 04:38:45;;;;;;;9.05;3.75;;;18.10;99.40;;;;;;4977166;28;20046;-73
2021/08/09 04:41:13;;;;;;;6.68;3.00;;;18.20;99.40;;;;;;4975824;28;20113;-73
2021/08/09 04:43:41;;;;;;;7.25;3.53;;;18.10;99.00;;;;;;4977079;28;20027;-74
2021/08/09 04:46:09;;;;;;;9.70;3.70;;;17.90;99.10;;;;;;4976806;28;20082;-74
2021/08/09 04:48:37;;;;;;;8.57;3.50;;;17.80;99.70;;;;;;4977014;28;20558;-74
2021/08/09 04:51:04;;;;;;;9.25;3.55;;;17.70;99.60;;;;;;4977037;28;20029;-74
2021/08/09 04:53:31;;;;;;;7.72;3.53;;;17.70;99.90;;;;;;4976903;28;20070;-74
2021/08/09 04:55:59;;;;;;;9.82;3.20;;;17.70;99.90;;;;;;4976976;28;20069;-74
2021/08/09 04:58:26;;;;;;;9.88;3.47;;;17.70;99.90;;;;;;4975454;28;20035;-76
2021/08/09 05:00:54;;;;;;;8.10;3.20;;;17.70;99.90;;;;;;4976926;28;20454;-75
2021/08/09 05:03:21;;;;;;;14.13;3.50;;;17.60;99.90;;;;;;4976817;28;20030;-76
2021/08/09 05:05:49;;;;;;;9.10;3.60;;;17.50;99.90;;;;;;4975613;28;20031;-76
2021/08/09 05:08:16;;;;;;;8.40;3.70;;;17.40;99.90;;;;;;4975415;28;20547;-76
2021/08/09 05:10:43;;;;;;;8.00;4.05;;;17.40;99.90;;;;;;4976821;28;20022;-74
2021/08/09 05:13:11;;;;;;;9.82;3.33;;;17.40;99.90;;;;;;4975206;28;20082;-75
2021/08/09 05:15:40;;;;;;;9.10;3.42;;;17.40;99.90;;;;;;4975149;28;20027;-74
2021/08/09 05:18:11;;;;;;;9.90;3.75;;;17.30;99.90;;;;;;4976423;28;20023;-71
2021/08/09 05:20:39;;;;;;;8.10;3.72;;;17.20;99.90;;;;;;4976360;28;20031;-69
2021/08/09 05:23:06;;;;;;;8.82;3.72;;;17.20;99.90;;;;;;4976295;28;20479;-72
2021/08/09 05:25:35;;;;;;;7.72;2.90;;;17.20;99.90;;;;;;4976200;28;20030;-75
2021/08/09 05:28:02;;;;;;;7.30;3.50;;;17.20;99.90;;;;;;4976286;28;20019;-75
2021/08/09 05:30:30;;;;;;;9.00;3.65;;;17.10;99.90;;;;;;4974919;28;20484;-75
2021/08/09 05:32:59;;;;;;;15.73;4.25;;;17.00;99.90;;;;;;4976294;28;20019;-74
2021/08/09 05:35:26;;;;;;;12.38;4.22;;;16.90;99.90;;;;;;4976242;28;20057;-74
2021/08/09 05:37:54;;;;;;;8.73;4.13;;;16.80;99.90;;;;;;4975962;28;20031;-75
2021/08/09 05:40:22;;;;;;;11.48;5.30;;;16.80;99.90;;;;;;4975499;28;20109;-73
2021/08/09 05:42:50;;;;;;;11.10;4.30;;;16.80;99.90;;;;;;4976259;28;20026;-74
2021/08/09 05:45:17;;;;;;;9.15;3.85;;;16.70;99.90;;;;;;4975893;28;20038;-73
2021/08/09 05:47:45;;;;;;;9.43;4.13;;;16.70;99.90;;;;;;4974753;28;20022;-73
2021/08/09 05:50:13;;;;;;;10.88;3.88;;;16.60;99.90;;;;;;4975841;28;20023;-73
2021/08/09 05:52:40;;;;;;;9.70;4.20;;;16.50;99.90;;;;;;4975745;28;20023;-75
2021/08/09 05:55:08;;;;;;;6.20;3.95;;;16.50;99.90;;;;;;4975816;28;20034;-74
2021/08/09 05:57:36;;;;;;;9.32;3.85;;;16.40;99.90;;;;;;4975942;28;20023;-74
2021/08/09 06:00:05;;;;;;;8.90;4.15;;;16.40;99.90;;;;;;4975764;28;20019;-74
2021/08/09 06:02:39;;;;;;;8.82;4.38;;;16.40;99.90;;;;;;4975672;28;20034;-73
2021/08/09 06:05:07;;;;;;;12.60;4.00;;;16.30;99.90;;;;;;4975578;28;20035;-73
2021/08/09 06:07:34;;;;;;;12.20;4.63;;;16.30;99.90;;;;;;4975393;28;20022;-74
2021/08/09 06:10:01;;;;;;;9.35;3.90;;;16.30;99.90;;;;;;4975427;28;20106;-74
2021/08/09 06:12:29;;;;;;;8.45;4.40;;;16.30;99.90;;;;;;4974917;28;20520;-73
2021/08/09 06:14:56;;;;;;;9.52;3.95;;;16.20;99.90;;;;;;4975231;28;20061;-73
2021/08/09 06:17:23;;;;;;;10.30;4.10;;;16.20;99.90;;;;;;4975265;28;20029;-75
2021/08/09 06:19:51;;;;;;;10.30;4.35;;;16.10;99.90;;;;;;4975215;28;20026;-74
2021/08/09 06:22:18;;;;;;;11.88;5.00;;;16.00;99.90;;;;;;4974969;28;20019;-71
2021/08/09 06:24:45;;;;;;;10.90;3.88;;;16.00;99.90;;;;;;4974859;28;20150;-73
2021/08/09 06:27:13;;;;;;;8.50;3.90;;;15.90;99.90;;;;;;4974917;28;20030;-72
2021/08/09 06:29:40;;;;;;;9.07;3.50;;;15.90;99.90;;;;;;4974995;28;20062;-74
2021/08/09 06:32:08;;;;;;;8.57;3.53;;;15.80;99.90;;;;;;4973590;28;20170;-72
2021/08/09 06:34:35;;;;;;;11.63;4.03;;;15.70;99.90;;;;;;4974732;28;20109;-72
2021/08/09 06:37:02;;;;;;;9.52;4.30;;;15.70;99.90;;;;;;4974565;28;20030;-72
2021/08/09 06:39:30;;;;;;;11.50;4.68;;;15.60;99.90;;;;;;4974805;28;20387;-73
2021/08/09 06:42:02;;;;;;;10.98;4.72;;;15.50;99.90;;;;;;4974806;28;20030;-72
2021/08/09 06:44:33;;;;;;;12.60;5.03;;;15.50;99.90;;;;;;4974851;28;20386;-73
2021/08/09 06:47:01;;;;;;;6.97;4.43;;;15.40;99.90;;;;;;4974701;28;20041;-74
2021/08/09 06:49:28;;;;;;;11.30;4.28;;;15.40;99.90;;;;;;4974531;28;20022;-72
2021/08/09 06:51:56;;;;;;;12.73;4.45;;;15.30;99.90;;;;;;4973201;28;20492;-73
2021/08/09 06:54:24;;;;;;;11.52;4.70;;;15.30;99.90;;;;;;4974499;28;20023;-72
2021/08/09 06:56:52;;;;;;;15.60;4.85;;;15.30;99.90;;;;;;4973002;28;20101;-74
2021/08/09 06:59:19;;;;;;;14.07;5.38;;;15.20;99.90;;;;;;4974544;28;20030;-75
2021/08/09 07:01:47;;;;;;;8.60;5.10;;;15.20;99.90;;;;;;4974444;28;20035;-77
2021/08/09 07:04:15;;;;;;;11.93;4.70;;;15.10;99.90;;;;;;4974391;28;20022;-74
2021/08/09 07:06:42;;;;;;;8.05;3.85;;;15.00;99.90;;;;;;4974140;28;20027;-71
2021/08/09 07:09:09;;;;;;;8.48;4.30;;;15.00;99.90;;;;;;4974128;28;20033;-72
2021/08/09 07:11:37;;;;;;;7.13;4.65;;;14.90;99.90;;;;;;4973925;28;20082;-74
2021/08/09 07:14:04;;;;;;;11.52;5.65;;;14.80;99.90;;;;;;4974274;28;20022;-73
2021/08/09 07:16:32;;;;;;;11.75;5.40;;;14.70;99.90;;;;;;4974209;28;20081;-74
2021/08/09 07:18:59;;;;;;;6.85;4.88;;;14.70;99.90;;;;;;4974108;28;20019;-73
2021/08/09 07:21:26;;;;;;;10.23;5.57;;;14.60;99.90;;;;;;4972749;28;20456;-74
2021/08/09 07:23:54;;;;;;;7.97;4.70;;;14.50;99.90;;;;;;4973960;28;20050;-74
2021/08/09 07:26:21;;;;;;;10.23;5.20;;;14.50;99.90;;;;;;4974098;28;20030;-74
2021/08/09 07:28:48;;;;;;;11.30;4.85;;;14.40;99.90;;;;;;4973926;28;20027;-74
2021/08/09 07:31:16;;;;;;;14.63;5.03;;;14.40;99.90;;;;;;4974307;28;20078;-71
2021/08/09 07:33:46;;;;;;;9.80;5.32;;;14.40;99.90;;;;;;4973987;28;20014;-72
2021/08/09 07:36:14;;;;;;;17.92;6.07;;;14.30;99.90;;;;;;4973996;28;20027;-73
2021/08/09 07:38:42;;;;;;;11.00;5.68;;;14.30;99.90;;;;;;4973885;28;20113;-72
2021/08/09 07:41:10;;;;;;;15.15;5.60;;;14.30;99.90;;;;;;4972612;28;20033;-73
2021/08/09 07:43:38;;;;;;;13.98;6.43;;;14.30;99.90;;;;;;4972580;28;20086;-73
2021/08/09 07:46:05;;;;;;;10.32;6.38;;;14.20;99.90;;;;;;4973947;28;20471;-73
2021/08/09 07:48:33;;;;;;;12.00;6.93;;;14.10;99.90;;;;;;4972532;28;20046;-73
2021/08/09 07:51:00;;;;;;;17.23;6.80;;;14.00;99.90;;;;;;4973958;28;20074;-71
2021/08/09 07:53:29;;;;;;;11.05;6.70;;;14.00;99.90;;;;;;4973895;28;20034;-72
2021/08/09 07:55:56;;;;;;;13.68;7.50;;;14.00;99.90;;;;;;4973744;28;20562;-71
2021/08/09 07:58:23;;;;;;;13.88;7.53;;;13.90;99.90;;;;;;4973750;28;20023;-71
2021/08/09 08:00:51;;;;;;;12.85;7.00;;;13.90;99.90;;;;;;4973746;28;20042;-70
2021/08/09 08:03:19;;;;;;;13.55;7.05;;;13.80;99.90;;;;;;4977006;28;20373;-71
2021/08/09 08:05:46;;;;;;;13.27;7.95;;;13.80;99.90;;;;;;4977564;28;20031;-71
2021/08/09 08:08:13;;;;;;;10.07;7.18;;;13.80;99.90;;;;;;4977617;28;20066;-71
2021/08/09 08:10:41;;;;;;;9.45;7.40;;;13.80;99.90;;;;;;4976095;28;20445;-72
2021/08/09 08:13:08;;;;;;;12.40;7.47;;;13.70;99.90;;;;;;4977392;28;20049;-71
2021/08/09 08:15:36;;;;;;;11.32;6.65;;;13.60;99.90;;;;;;4977436;28;20030;-71
2021/08/09 08:18:03;;;;;;;13.98;7.63;;;13.60;99.90;;;;;;4977370;28;20019;-72
2021/08/09 08:20:30;;;;;;;13.38;7.18;;;13.60;99.90;;;;;;4977379;28;20484;-71
2021/08/09 08:23:01;;;;;;;12.45;7.53;;;13.60;99.90;;;;;;4977293;28;20026;-71
2021/08/09 08:25:29;;;;;;;14.52;7.60;;;13.60;99.90;;;;;;4975981;28;20026;-71
2021/08/09 08:27:57;;;;;;;12.23;8.20;;;13.50;99.90;;;;;;4977262;28;20368;-71
2021/08/09 08:30:24;;;;;;;12.68;8.50;;;13.50;99.90;;;;;;4977230;28;20015;-71
2021/08/09 08:32:51;;;;;;;13.05;9.18;;;13.50;99.90;;;;;;4977336;28;20438;-72
2021/08/09 08:35:19;;;;;;;12.35;8.35;;;13.40;99.90;;;;;;4977160;28;20113;-72
2021/08/09 08:37:46;;;;;;;13.90;9.27;;;13.40;99.90;;;;;;4975779;28;20062;-72
2021/08/09 08:40:13;;;;;;;12.93;9.85;;;13.40;99.90;;;;;;4975606;28;20022;-71
2021/08/09 08:42:41;;;;;;;16.92;9.77;;;13.40;99.90;;;;;;4977461;28;20058;-72
2021/08/09 08:45:09;;;;;;;11.60;8.70;;;13.30;99.90;;;;;;4976882;28;20042;-72
2021/08/09 08:47:36;;;;;;;10.75;8.70;;;13.40;99.90;;;;;;4977159;28;20576;-71
2021/08/09 08:50:04;;;;;;;15.25;8.88;;;13.30;99.90;;;;;;4976800;28;20091;-71
2021/08/09 08:52:31;;;;;;;15.65;9.18;;;13.40;99.90;;;;;;4975562;28;20081;-72
2021/08/09 08:54:59;;;;;;;16.80;10.07;;;13.30;99.90;;;;;;4976769;28;20083;-72
2021/08/09 08:57:26;;;;;;;16.85;9.80;;;13.30;99.90;;;;;;4976721;28;20384;-72
2021/08/09 08:59:53;;;;;;;12.98;10.20;;;13.30;99.90;;;;;;4976659;28;20019;-72
2021/08/09 09:02:37;;;;;;;12.23;9.48;;;13.20;99.90;;;;;;4976572;28;20082;-73
2021/08/09 09:05:12;;;;;;;11.55;10.18;;;13.20;99.90;;;;;;4976511;28;20042;-72
2021/08/09 09:07:41;;;;;;;16.70;9.57;;;13.10;99.90;;;;;;4975133;28;20030;-72
2021/08/09 09:10:22;;;;;;;13.93;10.05;;;13.10;99.90;;;;;;4976362;28;20022;-71
2021/08/09 09:13:08;;;;;;;12.00;10.75;;;13.00;99.90;;;;;;4975892;28;20046;-72
2021/08/09 09:15:56;;;;;;;13.13;9.60;;;13.00;99.90;;;;;;4976065;28;20119;-72
2021/08/09 09:18:27;;;;;;;11.82;9.60;;;12.90;99.90;;;;;;4976371;28;20047;-71
2021/08/09 09:20:55;;;;;;;15.00;9.77;;;12.90;99.90;;;;;;4976233;28;20022;-72
2021/08/09 09:23:24;;;;;;;13.85;9.85;;;12.90;99.90;;;;;;4976343;28;20031;-71
2021/08/09 09:25:53;;;;;;;13.95;10.32;;;12.90;99.90;;;;;;4976146;28;20130;-72
2021/08/09 09:28:29;;;;;;;15.10;10.18;;;12.80;99.90;;;;;;4975976;28;20019;-72
2021/08/09 09:31:07;;;;;;;15.95;10.27;;;12.80;99.90;;;;;;4976098;28;20372;-72
2021/08/09 09:33:34;;;;;;;11.60;9.43;;;12.80;99.90;;;;;;4974553;28;20057;-72
2021/08/09 09:36:06;;;;;;;15.60;9.98;;;12.70;99.90;;;;;;4976067;28;20539;-72
2021/08/09 09:38:44;;;;;;;11.65;10.68;;;12.70;99.90;;;;;;4975940;28;20074;-71
2021/08/09 09:41:12;;;;;;;14.82;10.75;;;12.70;99.90;;;;;;4975926;28;20023;-71
2021/08/09 09:43:42;;;;;;;14.60;10.05;;;12.60;99.90;;;;;;4975822;28;20019;-72
2021/08/09 09:46:25;;;;;;;13.93;10.15;;;12.60;99.90;;;;;;4974329;28;20035;-72
2021/08/09 09:49:05;;;;;;;13.27;10.50;;;12.60;99.90;;;;;;4975915;28;20026;-71
2021/08/09 09:51:45;;;;;;;18.23;11.52;;;12.60;99.90;;;;;;4974390;28;20411;-72
2021/08/09 09:54:13;;;;;;;12.30;10.93;;;12.60;99.90;;;;;;4975636;28;20027;-72
2021/08/09 09:56:43;;;;;;;12.00;9.73;;;12.60;99.90;;;;;;4974342;28;20054;-72
2021/08/09 09:59:11;;;;;;;14.63;11.15;;;12.60;99.90;;;;;;4974306;28;20037;-72
2021/08/09 10:01:39;;;;;;;11.93;10.90;;;12.60;99.90;;;;;;4975621;28;20023;-73
2021/08/09 10:04:06;;;;;;;12.40;11.13;;;12.60;99.90;;;;;;4975556;28;20030;-71
2021/08/09 10:06:37;;;;;;;14.35;11.10;;;12.60;99.90;;;;;;4975466;28;20385;-71
2021/08/09 10:09:06;;;;;;;;;;;12.60;99.90;;;;;;4975747;28;20019;-71
2021/08/09 10:11:35;;;;;;;16.52;12.07;;;12.60;99.90;;;;;;4975078;28;19914;-73
2021/08/09 10:14:04;;;;;;;12.00;10.73;;;12.60;99.90;;;;;;4975498;28;20536;-70
2021/08/09 10:16:37;;;;;;;14.75;11.80;;;12.60;99.90;;;;;;4975388;28;20027;-73
2021/08/09 10:19:06;;;;;;;16.65;11.95;;;12.60;99.90;;;;;;4975155;28;20038;-71
2021/08/09 10:21:34;;;;;;;13.07;11.38;;;12.60;99.90;;;;;;4975114;28;20026;-72
2021/08/09 10:24:03;;;;;;;13.82;11.88;;;12.60;99.90;;;;;;4975183;28;20459;-71
2021/08/09 10:26:33;;;;;;;17.92;12.32;;;12.50;99.90;;;;;;4974803;28;20030;-72
2021/08/09 10:29:12;;;;;;;21.05;11.57;;;12.50;99.90;;;;;;4975182;28;20023;-72
2021/08/09 10:31:49;;;;;;;13.63;10.70;;;12.60;99.90;;;;;;4973546;28;20395;-71
2021/08/09 10:34:39;;;;;;;17.05;10.88;;;12.50;99.90;;;;;;4974919;28;20022;-71
2021/08/09 10:37:23;;;;;;;13.63;11.05;;;12.50;99.90;;;;;;4974868;28;20026;-71
2021/08/09 10:40:05;;;;;;;19.58;11.40;;;12.50;99.90;;;;;;4974932;28;20034;-72
2021/08/09 10:42:41;;;;;;;14.60;10.98;;;12.50;99.90;;;;;;4974546;28;20027;-72
2021/08/09 10:45:35;;;;;;;21.83;11.27;;;12.50;99.90;;;;;;4973246;28;20031;-71
2021/08/09 10:48:04;;;;;;;14.43;10.50;;;12.50;99.90;;;;;;4971119;28;20467;-71
2021/08/09 10:50:39;;;;;;;17.85;11.98;;;12.40;99.90;;;;;;4973248;28;20027;-72
2021/08/09 10:53:27;;;;;;;15.40;11.02;;;12.50;99.90;;;;;;4973269;28;20031;-70
2021/08/09 10:55:55;;;;;;;15.45;10.10;;;12.50;99.90;;;;;;4957993;28;20416;-70
2021/08/09 10:58:41;;;;;;;12.95;10.98;;;12.50;99.90;;;;;;4974413;28;20052;-71
2021/08/09 11:01:09;;;;;;;14.38;10.63;;;12.50;99.90;;;;;;4973153;28;20506;-71
2021/08/09 11:04:02;;;;;;;15.85;10.52;;;12.50;99.90;;;;;;4974364;28;20038;-72
2021/08/09 11:06:52;;;;;;;17.30;12.13;;;12.50;99.90;;;;;;4974295;28;20037;-72
2021/08/09 11:09:35;;;;;;;18.02;10.63;;;12.50;99.90;;;;;;4974411;28;20022;-71
2021/08/09 11:12:23;;;;;;;15.20;11.10;;;12.50;99.90;;;;;;4974239;28;20495;-71
2021/08/09 11:15:11;;;;;;;15.52;11.10;;;12.50;99.90;;;;;;4972886;28;20026;-71
2021/08/09 11:17:38;;;;;;;21.88;12.40;;;12.50;99.90;;;;;;4974245;28;20046;-71
2021/08/09 11:20:13;;;;;;;15.02;10.77;;;12.50;99.90;;;;;;4974066;28;20027;-71
2021/08/09 11:22:45;;;;;;;18.88;12.05;;;12.50;99.90;;;;;;4974242;28;20066;-71
2021/08/09 11:25:27;;;;;;;18.98;11.73;;;12.50;99.90;;;;;;4974171;28;20034;-71
2021/08/09 11:28:04;;;;;;;18.23;10.75;;;12.50;99.90;;;;;;4974156;28;20023;-71
2021/08/09 11:30:43;;;;;;;21.83;11.40;;;12.40;99.90;;;;;;4974318;28;20031;-71
2021/08/09 11:33:41;;;;;;;11.73;10.55;;;12.40;99.90;;;;;;4974140;28;20023;-71
2021/08/09 11:36:11;;;;;;;20.52;10.73;;;12.40;99.90;;;;;;4953329;28;20096;-71
2021/08/09 11:38:57;;;;;;;16.88;11.52;;;12.40;99.90;;;;;;4973901;28;20384;-71
2021/08/09 11:41:29;;;;;;;13.38;11.07;;;12.40;99.90;;;;;;4972547;28;20433;-72
2021/08/09 11:44:08;;;;;;;15.32;10.40;;;12.40;99.90;;;;;;4972415;28;20098;-70
2021/08/09 11:46:49;;;;;;;16.27;10.60;;;12.50;99.90;;;;;;4972461;28;20031;-72
2021/08/09 11:49:19;;;;;;;13.50;10.25;;;12.40;99.90;;;;;;4973725;28;20019;-72
2021/08/09 11:51:48;;;;;;;11.70;10.60;;;12.30;99.90;;;;;;4973831;28;20388;-72
2021/08/09 11:54:16;;;;;;;12.20;11.00;;;12.30;99.90;;;;;;4972376;28;20027;-72
2021/08/09 11:56:54;;;;;;;14.00;10.82;;;12.20;99.90;;;;;;4973832;28;20027;-72
2021/08/09 11:59:22;;;;;;;15.90;10.35;;;12.20;99.90;;;;;;4972387;28;20027;-72
2021/08/09 12:01:49;;;;;;;14.40;10.13;;;12.20;99.90;;;;;;4973686;28;20076;-71
2021/08/09 12:04:21;;;;;;;11.70;10.35;;;12.10;99.90;;;;;;4973844;28;20035;-72
2021/08/09 12:06:55;;;;;;;14.45;10.02;;;12.10;99.90;;;;;;4973645;28;20030;-72
2021/08/09 12:09:42;;;;;;;15.40;10.63;;;12.10;99.90;;;;;;4973698;28;20042;-71
2021/08/09 12:12:14;;;;;;;15.48;10.82;;;12.00;99.90;;;;;;4973604;28;20089;-71
2021/08/09 12:14:42;;;;;;;18.63;10.98;;;12.00;99.90;;;;;;4973509;28;20494;-71
2021/08/09 12:17:20;;;;;;;14.73;10.60;;;12.00;99.90;;;;;;4973430;28;20023;-71
2021/08/09 12:19:50;;;;;;;14.20;10.75;;;12.00;99.90;;;;;;4973712;28;20030;-72
2021/08/09 12:22:27;;;;;;;16.83;10.57;;;11.80;99.90;;;;;;4973437;28;20027;-73
2021/08/09 12:25:11;;;;;;;14.05;10.50;;;11.80;99.90;;;;;;4973535;28;20046;-73
2021/08/09 12:27:39;;;;;;;11.30;10.13;;;11.70;99.90;;;;;;4973708;28;20043;-71
2021/08/09 12:30:18;;;;;;;11.60;9.73;;;11.70;99.90;;;;;;4972178;28;20042;-72
2021/08/09 12:32:59;;;;;;;10.75;9.40;;;11.60;99.90;;;;;;4972093;28;20110;-72
2021/08/09 12:35:40;;;;;;;11.48;9.40;;;11.60;99.90;;;;;;4973405;28;20399;-72
2021/08/09 12:38:09;;;;;;;16.55;10.63;;;11.50;99.90;;;;;;4973418;28;20110;-72
2021/08/09 12:40:51;;;;;;;16.55;10.80;;;11.50;99.90;;;;;;4973359;28;20063;-72
2021/08/09 12:43:20;;;;;;;12.02;10.45;;;11.40;99.90;;;;;;4973513;28;20031;-72
2021/08/09 12:45:49;;;;;;;14.05;10.65;;;11.40;99.90;;;;;;4973091;28;20404;-72
2021/08/09 12:48:17;;;;;;;14.10;11.52;;;11.40;99.90;;;;;;4974553;28;20073;-72
2021/08/09 12:50:45;;;;;;;13.60;11.00;;;11.40;99.90;;;;;;4976780;28;20030;-72
2021/08/09 12:53:13;;;;;;;15.00;10.70;;;11.30;99.90;;;;;;4976778;28;20383;-72
2021/08/09 12:55:40;;;;;;;14.00;10.65;;;11.30;99.90;;;;;;4976775;28;20019;-72